Loretto, Virginia
Current Conditions -  °F | °C
As of 2:15 PM on Friday 28 Nov 2014 (Local Time) from KXSA Reporting Station
Scattered Clouds Scattered Clouds  
Wind Chill: 36°   Ceiling: Unl
Heat Index: 41°   Visibility: 10mi
Dew Point: 14°   Wind: 8mph
Humidity: 33%   Direction: 280°W
Pressure: 30.27"   Gusts: NA
Location:  38.08°N, 77.05°W
Report Text: KXSA 281915Z AUTO 28007KT 10SM SCT050 05/M10 A3027 RMK AO2 T00511102
Loading
Personal Weather Stations






























Interactive Weather Map New forecast layout! Learn more

10-Day Weather Forecast

Advertisements
Track Severe Weather on mobile